sensor_id;sensor_type;location;lat;lon;timestamp;P1;durP1;ratioP1;P2;durP2;ratioP2
14187;SDS011;7175;51.978;5.330;2023-04-01T00:01:09;102.30;;;95.20;;
14187;SDS011;7175;51.978;5.330;2023-04-01T00:03:40;100.60;;;93.50;;
14187;SDS011;7175;51.978;5.330;2023-04-01T00:06:09;100.20;;;93.10;;
14187;SDS011;7175;51.978;5.330;2023-04-01T00:08:40;100.33;;;93.23;;
14187;SDS011;7175;51.978;5.330;2023-04-01T00:11:08;102.93;;;95.63;;
14187;SDS011;7175;51.978;5.330;2023-04-01T00:13:38;101.77;;;94.57;;
14187;SDS011;7175;51.978;5.330;2023-04-01T00:16:07;101.87;;;94.70;;
14187;SDS011;7175;51.978;5.330;2023-04-01T00:18:48;103.27;;;95.87;;
14187;SDS011;7175;51.978;5.330;2023-04-01T00:21:18;104.90;;;97.50;;
14187;SDS011;7175;51.978;5.330;2023-04-01T00:23:47;98.90;;;91.70;;
14187;SDS011;7175;51.978;5.330;2023-04-01T00:30:06;92.83;;;86.20;;
14187;SDS011;7175;51.978;5.330;2023-04-01T00:32:35;90.13;;;83.73;;
14187;SDS011;7175;51.978;5.330;2023-04-01T00:35:04;87.70;;;81.40;;
14187;SDS011;7175;51.978;5.330;2023-04-01T00:37:34;89.43;;;83.03;;
14187;SDS011;7175;51.978;5.330;2023-04-01T00:40:03;90.83;;;84.33;;
14187;SDS011;7175;51.978;5.330;2023-04-01T00:42:33;91.17;;;84.67;;
14187;SDS011;7175;51.978;5.330;2023-04-01T00:47:54;90.83;;;84.43;;
14187;SDS011;7175;51.978;5.330;2023-04-01T00:50:23;91.13;;;84.70;;
14187;SDS011;7175;51.978;5.330;2023-04-01T00:52:54;91.93;;;85.43;;
14187;SDS011;7175;51.978;5.330;2023-04-01T00:55:22;91.50;;;85.10;;
14187;SDS011;7175;51.978;5.330;2023-04-01T00:57:52;93.97;;;87.47;;
14187;SDS011;7175;51.978;5.330;2023-04-01T01:00:25;95.10;;;88.50;;
14187;SDS011;7175;51.978;5.330;2023-04-01T01:02:54;93.53;;;87.03;;
14187;SDS011;7175;51.978;5.330;2023-04-01T01:05:23;89.60;;;83.30;;
14187;SDS011;7175;51.978;5.330;2023-04-01T01:08:15;93.60;;;87.10;;
14187;SDS011;7175;51.978;5.330;2023-04-01T01:10:51;92.50;;;86.00;;
14187;SDS011;7175;51.978;5.330;2023-04-01T01:13:21;97.80;;;90.30;;
14187;SDS011;7175;51.978;5.330;2023-04-01T01:15:56;94.27;;;87.67;;
14187;SDS011;7175;51.978;5.330;2023-04-01T01:18:30;96.93;;;90.30;;
14187;SDS011;7175;51.978;5.330;2023-04-01T01:24:08;96.03;;;89.13;;
14187;SDS011;7175;51.978;5.330;2023-04-01T01:26:53;93.67;;;87.17;;
14187;SDS011;7175;51.978;5.330;2023-04-01T01:29:57;92.00;;;85.50;;
14187;SDS011;7175;51.978;5.330;2023-04-01T01:32:47;89.97;;;83.57;;
14187;SDS011;7175;51.978;5.330;2023-04-01T01:35:38;86.60;;;80.33;;
14187;SDS011;7175;51.978;5.330;2023-04-01T01:38:16;88.93;;;82.63;;
14187;SDS011;7175;51.978;5.330;2023-04-01T01:40:47;87.40;;;81.00;;
14187;SDS011;7175;51.978;5.330;2023-04-01T01:43:21;91.20;;;84.60;;
14187;SDS011;7175;51.978;5.330;2023-04-01T01:45:54;90.87;;;84.47;;
14187;SDS011;7175;51.978;5.330;2023-04-01T01:48:25;94.20;;;87.03;;
14187;SDS011;7175;51.978;5.330;2023-04-01T01:50:57;88.97;;;82.47;;
14187;SDS011;7175;51.978;5.330;2023-04-01T01:53:27;89.27;;;82.87;;
14187;SDS011;7175;51.978;5.330;2023-04-01T01:55:56;90.77;;;84.27;;
14187;SDS011;7175;51.978;5.330;2023-04-01T01:58:25;96.03;;;89.37;;
14187;SDS011;7175;51.978;5.330;2023-04-01T02:00:57;94.10;;;87.50;;
14187;SDS011;7175;51.978;5.330;2023-04-01T02:03:28;94.87;;;88.17;;
14187;SDS011;7175;51.978;5.330;2023-04-01T02:06:03;94.07;;;87.37;;
14187;SDS011;7175;51.978;5.330;2023-04-01T02:08:34;93.20;;;86.43;;
14187;SDS011;7175;51.978;5.330;2023-04-01T02:11:05;94.03;;;87.33;;
14187;SDS011;7175;51.978;5.330;2023-04-01T02:13:35;96.93;;;90.07;;
14187;SDS011;7175;51.978;5.330;2023-04-01T02:16:09;98.37;;;91.40;;
14187;SDS011;7175;51.978;5.330;2023-04-01T02:18:41;95.63;;;88.73;;
14187;SDS011;7175;51.978;5.330;2023-04-01T02:21:14;98.23;;;91.33;;
14187;SDS011;7175;51.978;5.330;2023-04-01T02:23:44;101.10;;;93.80;;
14187;SDS011;7175;51.978;5.330;2023-04-01T02:26:14;98.00;;;91.20;;
14187;SDS011;7175;51.978;5.330;2023-04-01T02:28:43;98.20;;;91.33;;
14187;SDS011;7175;51.978;5.330;2023-04-01T02:31:14;99.07;;;92.07;;
14187;SDS011;7175;51.978;5.330;2023-04-01T02:33:42;96.17;;;89.17;;
14187;SDS011;7175;51.978;5.330;2023-04-01T02:36:12;98.07;;;91.07;;
14187;SDS011;7175;51.978;5.330;2023-04-01T02:38:44;99.70;;;92.70;;
14187;SDS011;7175;51.978;5.330;2023-04-01T02:41:14;99.23;;;92.23;;
14187;SDS011;7175;51.978;5.330;2023-04-01T02:43:42;100.47;;;93.37;;
14187;SDS011;7175;51.978;5.330;2023-04-01T02:46:11;99.40;;;92.30;;
14187;SDS011;7175;51.978;5.330;2023-04-01T02:48:39;102.23;;;94.97;;
14187;SDS011;7175;51.978;5.330;2023-04-01T02:51:08;99.27;;;91.97;;
14187;SDS011;7175;51.978;5.330;2023-04-01T02:53:38;103.73;;;96.33;;
14187;SDS011;7175;51.978;5.330;2023-04-01T02:56:06;105.90;;;98.33;;
14187;SDS011;7175;51.978;5.330;2023-04-01T02:58:35;105.57;;;98.07;;
14187;SDS011;7175;51.978;5.330;2023-04-01T03:01:03;109.23;;;101.60;;
14187;SDS011;7175;51.978;5.330;2023-04-01T03:03:32;107.23;;;99.73;;
14187;SDS011;7175;51.978;5.330;2023-04-01T03:06:04;103.37;;;95.93;;
14187;SDS011;7175;51.978;5.330;2023-04-01T03:08:33;102.00;;;94.63;;
14187;SDS011;7175;51.978;5.330;2023-04-01T03:11:03;100.87;;;93.57;;
14187;SDS011;7175;51.978;5.330;2023-04-01T03:13:32;101.67;;;94.37;;
14187;SDS011;7175;51.978;5.330;2023-04-01T03:16:01;103.30;;;95.90;;
14187;SDS011;7175;51.978;5.330;2023-04-01T03:18:30;103.20;;;95.90;;
14187;SDS011;7175;51.978;5.330;2023-04-01T03:21:11;105.63;;;98.20;;
14187;SDS011;7175;51.978;5.330;2023-04-01T03:23:41;102.63;;;95.43;;
14187;SDS011;7175;51.978;5.330;2023-04-01T03:26:10;101.40;;;94.30;;
14187;SDS011;7175;51.978;5.330;2023-04-01T03:28:40;102.07;;;94.90;;
14187;SDS011;7175;51.978;5.330;2023-04-01T03:31:08;105.93;;;98.60;;
14187;SDS011;7175;51.978;5.330;2023-04-01T03:33:37;104.70;;;97.20;;
14187;SDS011;7175;51.978;5.330;2023-04-01T03:36:06;105.57;;;97.97;;
14187;SDS011;7175;51.978;5.330;2023-04-01T03:38:35;108.40;;;100.80;;
14187;SDS011;7175;51.978;5.330;2023-04-01T03:41:04;107.70;;;100.20;;
14187;SDS011;7175;51.978;5.330;2023-04-01T03:43:34;108.13;;;100.53;;
14187;SDS011;7175;51.978;5.330;2023-04-01T03:46:02;109.20;;;101.50;;
14187;SDS011;7175;51.978;5.330;2023-04-01T03:48:31;111.50;;;103.67;;
14187;SDS011;7175;51.978;5.330;2023-04-01T03:50:59;108.90;;;101.27;;
14187;SDS011;7175;51.978;5.330;2023-04-01T03:53:28;107.77;;;100.17;;
14187;SDS011;7175;51.978;5.330;2023-04-01T03:55:56;108.17;;;100.57;;
14187;SDS011;7175;51.978;5.330;2023-04-01T03:58:25;108.67;;;101.07;;
14187;SDS011;7175;51.978;5.330;2023-04-01T04:00:55;108.53;;;100.90;;
14187;SDS011;7175;51.978;5.330;2023-04-01T04:03:23;106.43;;;98.83;;
14187;SDS011;7175;51.978;5.330;2023-04-01T04:05:52;106.40;;;98.90;;
14187;SDS011;7175;51.978;5.330;2023-04-01T04:08:22;108.40;;;100.87;;
14187;SDS011;7175;51.978;5.330;2023-04-01T04:10:54;107.53;;;100.03;;
14187;SDS011;7175;51.978;5.330;2023-04-01T04:13:23;106.80;;;99.30;;
14187;SDS011;7175;51.978;5.330;2023-04-01T04:15:51;105.80;;;98.40;;
14187;SDS011;7175;51.978;5.330;2023-04-01T04:18:21;113.90;;;105.90;;
14187;SDS011;7175;51.978;5.330;2023-04-01T04:20:50;111.93;;;104.00;;
14187;SDS011;7175;51.978;5.330;2023-04-01T04:23:18;111.67;;;103.77;;
14187;SDS011;7175;51.978;5.330;2023-04-01T04:25:54;110.43;;;102.73;;
14187;SDS011;7175;51.978;5.330;2023-04-01T04:28:25;108.20;;;100.50;;
14187;SDS011;7175;51.978;5.330;2023-04-01T04:30:54;109.30;;;101.70;;
14187;SDS011;7175;51.978;5.330;2023-04-01T04:33:24;106.73;;;99.20;;
14187;SDS011;7175;51.978;5.330;2023-04-01T04:35:54;106.87;;;99.33;;
14187;SDS011;7175;51.978;5.330;2023-04-01T04:38:24;109.40;;;101.70;;
14187;SDS011;7175;51.978;5.330;2023-04-01T04:40:54;110.17;;;102.47;;
14187;SDS011;7175;51.978;5.330;2023-04-01T04:43:23;110.37;;;102.67;;
14187;SDS011;7175;51.978;5.330;2023-04-01T04:45:51;110.10;;;102.40;;
14187;SDS011;7175;51.978;5.330;2023-04-01T04:48:20;108.93;;;101.23;;
14187;SDS011;7175;51.978;5.330;2023-04-01T04:50:50;106.43;;;98.90;;
14187;SDS011;7175;51.978;5.330;2023-04-01T04:53:19;106.97;;;99.37;;
14187;SDS011;7175;51.978;5.330;2023-04-01T04:55:48;108.73;;;101.00;;
14187;SDS011;7175;51.978;5.330;2023-04-01T04:58:17;111.30;;;103.47;;
14187;SDS011;7175;51.978;5.330;2023-04-01T05:00:46;105.13;;;97.57;;
14187;SDS011;7175;51.978;5.330;2023-04-01T05:03:15;112.83;;;104.70;;
14187;SDS011;7175;51.978;5.330;2023-04-01T05:05:48;110.30;;;102.30;;
14187;SDS011;7175;51.978;5.330;2023-04-01T05:08:19;110.40;;;102.30;;
14187;SDS011;7175;51.978;5.330;2023-04-01T05:10:47;110.83;;;102.63;;
14187;SDS011;7175;51.978;5.330;2023-04-01T05:13:15;109.37;;;101.30;;
14187;SDS011;7175;51.978;5.330;2023-04-01T05:15:44;111.27;;;103.07;;
14187;SDS011;7175;51.978;5.330;2023-04-01T05:18:13;106.07;;;97.77;;
14187;SDS011;7175;51.978;5.330;2023-04-01T05:20:45;104.27;;;95.93;;
14187;SDS011;7175;51.978;5.330;2023-04-01T05:23:16;104.60;;;96.50;;
14187;SDS011;7175;51.978;5.330;2023-04-01T05:25:47;98.30;;;90.30;;
14187;SDS011;7175;51.978;5.330;2023-04-01T05:28:17;103.23;;;95.03;;
14187;SDS011;7175;51.978;5.330;2023-04-01T05:30:46;104.23;;;95.93;;
14187;SDS011;7175;51.978;5.330;2023-04-01T05:33:15;102.73;;;94.63;;
14187;SDS011;7175;51.978;5.330;2023-04-01T05:35:44;99.73;;;91.43;;
14187;SDS011;7175;51.978;5.330;2023-04-01T05:38:12;101.23;;;92.97;;
14187;SDS011;7175;51.978;5.330;2023-04-01T05:40:42;100.63;;;92.50;;
14187;SDS011;7175;51.978;5.330;2023-04-01T05:43:11;99.43;;;91.27;;
14187;SDS011;7175;51.978;5.330;2023-04-01T05:45:39;93.33;;;85.63;;
14187;SDS011;7175;51.978;5.330;2023-04-01T05:48:08;92.97;;;85.07;;
14187;SDS011;7175;51.978;5.330;2023-04-01T05:50:37;95.67;;;87.67;;
14187;SDS011;7175;51.978;5.330;2023-04-01T05:53:08;96.27;;;87.97;;
14187;SDS011;7175;51.978;5.330;2023-04-01T05:55:36;95.93;;;87.83;;
14187;SDS011;7175;51.978;5.330;2023-04-01T05:58:06;96.57;;;88.50;;
14187;SDS011;7175;51.978;5.330;2023-04-01T06:00:34;106.03;;;97.63;;
14187;SDS011;7175;51.978;5.330;2023-04-01T06:03:03;103.97;;;95.77;;
14187;SDS011;7175;51.978;5.330;2023-04-01T06:05:36;107.40;;;99.30;;
14187;SDS011;7175;51.978;5.330;2023-04-01T06:08:10;102.70;;;94.60;;
14187;SDS011;7175;51.978;5.330;2023-04-01T06:10:49;97.93;;;90.10;;
14187;SDS011;7175;51.978;5.330;2023-04-01T06:13:27;104.37;;;96.30;;
14187;SDS011;7175;51.978;5.330;2023-04-01T06:16:07;100.07;;;92.17;;
14187;SDS011;7175;51.978;5.330;2023-04-01T06:18:45;106.30;;;97.97;;
14187;SDS011;7175;51.978;5.330;2023-04-01T06:21:37;106.33;;;98.17;;
14187;SDS011;7175;51.978;5.330;2023-04-01T06:24:37;106.83;;;98.70;;
14187;SDS011;7175;51.978;5.330;2023-04-01T06:27:20;103.00;;;94.83;;
14187;SDS011;7175;51.978;5.330;2023-04-01T06:30:07;101.97;;;93.87;;
14187;SDS011;7175;51.978;5.330;2023-04-01T06:32:54;105.07;;;96.87;;
14187;SDS011;7175;51.978;5.330;2023-04-01T06:35:38;102.90;;;95.00;;
14187;SDS011;7175;51.978;5.330;2023-04-01T06:44:33;101.70;;;93.80;;
14187;SDS011;7175;51.978;5.330;2023-04-01T06:47:14;101.00;;;92.97;;
14187;SDS011;7175;51.978;5.330;2023-04-01T06:49:52;99.63;;;91.83;;
14187;SDS011;7175;51.978;5.330;2023-04-01T06:52:31;99.50;;;91.70;;
14187;SDS011;7175;51.978;5.330;2023-04-01T06:55:14;99.90;;;92.10;;
14187;SDS011;7175;51.978;5.330;2023-04-01T06:57:54;97.77;;;89.87;;
14187;SDS011;7175;51.978;5.330;2023-04-01T07:00:27;100.33;;;92.53;;
14187;SDS011;7175;51.978;5.330;2023-04-01T07:03:06;102.77;;;94.77;;
14187;SDS011;7175;51.978;5.330;2023-04-01T07:05:45;102.10;;;94.30;;
14187;SDS011;7175;51.978;5.330;2023-04-01T07:08:15;107.93;;;99.93;;
14187;SDS011;7175;51.978;5.330;2023-04-01T07:10:50;106.03;;;98.23;;
14187;SDS011;7175;51.978;5.330;2023-04-01T07:13:24;106.63;;;98.83;;
14187;SDS011;7175;51.978;5.330;2023-04-01T07:15:57;108.37;;;100.57;;
14187;SDS011;7175;51.978;5.330;2023-04-01T07:18:34;108.80;;;100.70;;
14187;SDS011;7175;51.978;5.330;2023-04-01T07:21:09;107.07;;;99.27;;
14187;SDS011;7175;51.978;5.330;2023-04-01T07:23:46;110.13;;;102.30;;
14187;SDS011;7175;51.978;5.330;2023-04-01T07:26:19;104.47;;;96.77;;
14187;SDS011;7175;51.978;5.330;2023-04-01T07:28:50;105.60;;;97.90;;
14187;SDS011;7175;51.978;5.330;2023-04-01T07:31:23;101.27;;;93.77;;
14187;SDS011;7175;51.978;5.330;2023-04-01T07:34:03;99.40;;;91.80;;
14187;SDS011;7175;51.978;5.330;2023-04-01T07:36:38;100.80;;;93.13;;
14187;SDS011;7175;51.978;5.330;2023-04-01T07:39:13;101.97;;;94.30;;
14187;SDS011;7175;51.978;5.330;2023-04-01T07:41:53;105.07;;;97.47;;
14187;SDS011;7175;51.978;5.330;2023-04-01T07:44:28;101.00;;;93.50;;
14187;SDS011;7175;51.978;5.330;2023-04-01T07:47:10;105.30;;;97.70;;
14187;SDS011;7175;51.978;5.330;2023-04-01T07:49:53;102.23;;;94.73;;
14187;SDS011;7175;51.978;5.330;2023-04-01T07:52:32;104.60;;;97.07;;
14187;SDS011;7175;51.978;5.330;2023-04-01T07:55:09;104.97;;;97.37;;
14187;SDS011;7175;51.978;5.330;2023-04-01T07:57:47;100.97;;;93.63;;
14187;SDS011;7175;51.978;5.330;2023-04-01T08:00:20;102.60;;;94.90;;
14187;SDS011;7175;51.978;5.330;2023-04-01T08:02:59;102.90;;;95.50;;
14187;SDS011;7175;51.978;5.330;2023-04-01T08:05:44;99.20;;;92.00;;
14187;SDS011;7175;51.978;5.330;2023-04-01T08:08:19;101.70;;;94.30;;
14187;SDS011;7175;51.978;5.330;2023-04-01T08:11:01;99.77;;;92.40;;
14187;SDS011;7175;51.978;5.330;2023-04-01T08:13:38;100.57;;;93.27;;
14187;SDS011;7175;51.978;5.330;2023-04-01T08:16:12;95.70;;;88.50;;
14187;SDS011;7175;51.978;5.330;2023-04-01T08:18:50;96.67;;;89.60;;
14187;SDS011;7175;51.978;5.330;2023-04-01T08:21:28;95.07;;;88.10;;
14187;SDS011;7175;51.978;5.330;2023-04-01T08:24:05;92.73;;;85.93;;
14187;SDS011;7175;51.978;5.330;2023-04-01T08:26:42;95.80;;;88.50;;
14187;SDS011;7175;51.978;5.330;2023-04-01T08:29:15;98.07;;;90.87;;
14187;SDS011;7175;51.978;5.330;2023-04-01T08:31:48;94.30;;;87.40;;
14187;SDS011;7175;51.978;5.330;2023-04-01T08:34:24;96.27;;;89.33;;
14187;SDS011;7175;51.978;5.330;2023-04-01T08:36:59;94.93;;;88.07;;
14187;SDS011;7175;51.978;5.330;2023-04-01T08:39:31;89.53;;;82.93;;
14187;SDS011;7175;51.978;5.330;2023-04-01T08:42:18;90.47;;;83.80;;
14187;SDS011;7175;51.978;5.330;2023-04-01T08:54:21;93.13;;;86.33;;
14187;SDS011;7175;51.978;5.330;2023-04-01T08:57:03;96.60;;;89.70;;
14187;SDS011;7175;51.978;5.330;2023-04-01T08:59:46;93.47;;;86.67;;
14187;SDS011;7175;51.978;5.330;2023-04-01T09:02:38;94.03;;;87.23;;
14187;SDS011;7175;51.978;5.330;2023-04-01T09:05:46;92.27;;;85.67;;
14187;SDS011;7175;51.978;5.330;2023-04-01T09:08:41;93.17;;;86.57;;
14187;SDS011;7175;51.978;5.330;2023-04-01T09:11:26;92.17;;;85.67;;
14187;SDS011;7175;51.978;5.330;2023-04-01T09:17:19;90.00;;;83.60;;
14187;SDS011;7175;51.978;5.330;2023-04-01T09:20:00;88.70;;;82.40;;
14187;SDS011;7175;51.978;5.330;2023-04-01T09:22:55;90.40;;;84.07;;
14187;SDS011;7175;51.978;5.330;2023-04-01T09:25:41;87.37;;;81.17;;
14187;SDS011;7175;51.978;5.330;2023-04-01T09:28:22;85.90;;;79.80;;
14187;SDS011;7175;51.978;5.330;2023-04-01T09:34:06;87.23;;;81.03;;
14187;SDS011;7175;51.978;5.330;2023-04-01T09:36:52;80.67;;;74.77;;
14187;SDS011;7175;51.978;5.330;2023-04-01T09:39:36;77.90;;;72.10;;
14187;SDS011;7175;51.978;5.330;2023-04-01T09:42:08;77.93;;;72.13;;
14187;SDS011;7175;51.978;5.330;2023-04-01T09:44:52;73.53;;;68.03;;
14187;SDS011;7175;51.978;5.330;2023-04-01T09:47:34;68.77;;;63.40;;
14187;SDS011;7175;51.978;5.330;2023-04-01T09:50:29;74.57;;;68.97;;
14187;SDS011;7175;51.978;5.330;2023-04-01T09:53:07;77.37;;;71.60;;
14187;SDS011;7175;51.978;5.330;2023-04-01T10:08:21;74.97;;;69.30;;
14187;SDS011;7175;51.978;5.330;2023-04-01T10:11:13;75.27;;;69.57;;
14187;SDS011;7175;51.978;5.330;2023-04-01T10:14:02;75.70;;;70.00;;
14187;SDS011;7175;51.978;5.330;2023-04-01T10:23:07;80.17;;;74.33;;
14187;SDS011;7175;51.978;5.330;2023-04-01T10:26:16;72.67;;;67.07;;
14187;SDS011;7175;51.978;5.330;2023-04-01T10:32:28;68.13;;;62.83;;
14187;SDS011;7175;51.978;5.330;2023-04-01T10:35:28;73.37;;;67.77;;
14187;SDS011;7175;51.978;5.330;2023-04-01T10:38:45;78.27;;;72.47;;
14187;SDS011;7175;51.978;5.330;2023-04-01T10:47:48;67.97;;;62.57;;
14187;SDS011;7175;51.978;5.330;2023-04-01T10:53:40;73.10;;;67.40;;
14187;SDS011;7175;51.978;5.330;2023-04-01T10:56:24;77.60;;;71.90;;
14187;SDS011;7175;51.978;5.330;2023-04-01T11:08:38;60.70;;;56.00;;
14187;SDS011;7175;51.978;5.330;2023-04-01T11:11:46;60.70;;;56.10;;
14187;SDS011;7175;51.978;5.330;2023-04-01T11:21:23;53.10;;;49.00;;
14187;SDS011;7175;51.978;5.330;2023-04-01T11:27:25;43.23;;;39.83;;
14187;SDS011;7175;51.978;5.330;2023-04-01T11:30:14;45.40;;;42.00;;
14187;SDS011;7175;51.978;5.330;2023-04-01T11:32:52;46.37;;;42.87;;
14187;SDS011;7175;51.978;5.330;2023-04-01T11:38:34;46.97;;;43.40;;
14187;SDS011;7175;51.978;5.330;2023-04-01T11:41:22;48.00;;;44.30;;
14187;SDS011;7175;51.978;5.330;2023-04-01T11:44:07;50.20;;;46.40;;
14187;SDS011;7175;51.978;5.330;2023-04-01T11:46:46;48.00;;;44.30;;
14187;SDS011;7175;51.978;5.330;2023-04-01T11:49:29;44.23;;;40.83;;
14187;SDS011;7175;51.978;5.330;2023-04-01T11:52:11;37.37;;;34.37;;
14187;SDS011;7175;51.978;5.330;2023-04-01T11:54:56;35.90;;;33.00;;
14187;SDS011;7175;51.978;5.330;2023-04-01T11:57:38;35.03;;;32.13;;
14187;SDS011;7175;51.978;5.330;2023-04-01T12:03:14;35.67;;;32.87;;
14187;SDS011;7175;51.978;5.330;2023-04-01T12:05:54;37.47;;;34.53;;
14187;SDS011;7175;51.978;5.330;2023-04-01T12:08:31;42.03;;;38.83;;
14187;SDS011;7175;51.978;5.330;2023-04-01T12:11:09;44.90;;;41.50;;
14187;SDS011;7175;51.978;5.330;2023-04-01T12:13:48;49.30;;;45.60;;
14187;SDS011;7175;51.978;5.330;2023-04-01T12:16:25;48.47;;;44.87;;
14187;SDS011;7175;51.978;5.330;2023-04-01T12:19:09;48.77;;;45.17;;
14187;SDS011;7175;51.978;5.330;2023-04-01T12:21:46;46.07;;;42.67;;
14187;SDS011;7175;51.978;5.330;2023-04-01T12:24:29;46.37;;;42.87;;
14187;SDS011;7175;51.978;5.330;2023-04-01T12:27:26;44.50;;;41.20;;
14187;SDS011;7175;51.978;5.330;2023-04-01T12:30:11;46.80;;;43.40;;
14187;SDS011;7175;51.978;5.330;2023-04-01T12:32:55;42.70;;;39.50;;
14187;SDS011;7175;51.978;5.330;2023-04-01T12:35:37;35.83;;;33.03;;
14187;SDS011;7175;51.978;5.330;2023-04-01T12:38:23;35.63;;;32.83;;
14187;SDS011;7175;51.978;5.330;2023-04-01T12:41:10;35.90;;;33.10;;
14187;SDS011;7175;51.978;5.330;2023-04-01T12:43:59;35.87;;;33.07;;
14187;SDS011;7175;51.978;5.330;2023-04-01T12:47:04;35.30;;;32.50;;
14187;SDS011;7175;51.978;5.330;2023-04-01T12:49:54;37.07;;;34.17;;
14187;SDS011;7175;51.978;5.330;2023-04-01T12:52:32;36.83;;;33.93;;
14187;SDS011;7175;51.978;5.330;2023-04-01T12:55:18;38.80;;;35.70;;
14187;SDS011;7175;51.978;5.330;2023-04-01T13:04:33;38.27;;;35.27;;
14187;SDS011;7175;51.978;5.330;2023-04-01T13:07:45;38.97;;;35.87;;
14187;SDS011;7175;51.978;5.330;2023-04-01T13:10:31;38.40;;;35.40;;
14187;SDS011;7175;51.978;5.330;2023-04-01T13:13:22;39.70;;;36.50;;
14187;SDS011;7175;51.978;5.330;2023-04-01T13:16:03;41.00;;;37.70;;
14187;SDS011;7175;51.978;5.330;2023-04-01T13:18:41;41.60;;;38.30;;
14187;SDS011;7175;51.978;5.330;2023-04-01T13:21:25;45.17;;;41.67;;
14187;SDS011;7175;51.978;5.330;2023-04-01T13:24:08;47.20;;;43.50;;
14187;SDS011;7175;51.978;5.330;2023-04-01T13:26:48;50.87;;;46.87;;
14187;SDS011;7175;51.978;5.330;2023-04-01T13:29:23;53.30;;;49.20;;
14187;SDS011;7175;51.978;5.330;2023-04-01T13:32:02;54.20;;;50.10;;
14187;SDS011;7175;51.978;5.330;2023-04-01T13:34:54;56.80;;;52.50;;
14187;SDS011;7175;51.978;5.330;2023-04-01T13:37:42;59.47;;;54.93;;
14187;SDS011;7175;51.978;5.330;2023-04-01T13:40:33;59.30;;;54.80;;
14187;SDS011;7175;51.978;5.330;2023-04-01T13:43:15;60.40;;;55.90;;
14187;SDS011;7175;51.978;5.330;2023-04-01T13:45:57;57.10;;;52.70;;
14187;SDS011;7175;51.978;5.330;2023-04-01T13:48:48;59.80;;;55.20;;
14187;SDS011;7175;51.978;5.330;2023-04-01T13:51:39;58.30;;;53.83;;
14187;SDS011;7175;51.978;5.330;2023-04-01T13:54:36;59.10;;;54.60;;
14187;SDS011;7175;51.978;5.330;2023-04-01T13:57:34;55.27;;;50.97;;
14187;SDS011;7175;51.978;5.330;2023-04-01T14:00:31;56.23;;;51.93;;
14187;SDS011;7175;51.978;5.330;2023-04-01T14:03:26;54.50;;;50.30;;
14187;SDS011;7175;51.978;5.330;2023-04-01T14:09:19;53.90;;;49.80;;
14187;SDS011;7175;51.978;5.330;2023-04-01T14:12:04;51.80;;;47.80;;
14187;SDS011;7175;51.978;5.330;2023-04-01T14:14:44;55.63;;;51.43;;
14187;SDS011;7175;51.978;5.330;2023-04-01T14:17:27;54.70;;;50.47;;
14187;SDS011;7175;51.978;5.330;2023-04-01T14:20:15;55.00;;;50.80;;
14187;SDS011;7175;51.978;5.330;2023-04-01T14:29:20;52.00;;;48.00;;
14187;SDS011;7175;51.978;5.330;2023-04-01T14:32:06;55.93;;;51.43;;
14187;SDS011;7175;51.978;5.330;2023-04-01T14:34:44;55.10;;;50.90;;
14187;SDS011;7175;51.978;5.330;2023-04-01T14:40:27;58.40;;;54.00;;
14187;SDS011;7175;51.978;5.330;2023-04-01T14:42:59;56.70;;;52.30;;
14187;SDS011;7175;51.978;5.330;2023-04-01T14:45:46;62.13;;;57.37;;
14187;SDS011;7175;51.978;5.330;2023-04-01T14:48:51;57.07;;;52.77;;
14187;SDS011;7175;51.978;5.330;2023-04-01T14:51:28;60.33;;;55.80;;
14187;SDS011;7175;51.978;5.330;2023-04-01T14:54:00;57.80;;;53.40;;
14187;SDS011;7175;51.978;5.330;2023-04-01T14:56:36;57.10;;;52.70;;
14187;SDS011;7175;51.978;5.330;2023-04-01T14:59:10;57.90;;;53.40;;
14187;SDS011;7175;51.978;5.330;2023-04-01T15:01:46;59.60;;;55.00;;
14187;SDS011;7175;51.978;5.330;2023-04-01T15:04:24;59.20;;;54.60;;
14187;SDS011;7175;51.978;5.330;2023-04-01T15:07:14;56.93;;;52.43;;
14187;SDS011;7175;51.978;5.330;2023-04-01T15:09:55;57.80;;;53.30;;
14187;SDS011;7175;51.978;5.330;2023-04-01T15:12:36;55.17;;;50.77;;
14187;SDS011;7175;51.978;5.330;2023-04-01T15:15:19;52.80;;;48.60;;
14187;SDS011;7175;51.978;5.330;2023-04-01T15:18:06;54.40;;;50.10;;
14187;SDS011;7175;51.978;5.330;2023-04-01T15:23:32;52.73;;;48.43;;
14187;SDS011;7175;51.978;5.330;2023-04-01T15:32:14;58.00;;;53.50;;
14187;SDS011;7175;51.978;5.330;2023-04-01T15:34:51;59.70;;;55.00;;
14187;SDS011;7175;51.978;5.330;2023-04-01T15:37:28;59.53;;;54.83;;
14187;SDS011;7175;51.978;5.330;2023-04-01T15:40:08;60.10;;;55.40;;
14187;SDS011;7175;51.978;5.330;2023-04-01T15:42:54;58.60;;;53.90;;
14187;SDS011;7175;51.978;5.330;2023-04-01T15:45:31;60.13;;;55.30;;
14187;SDS011;7175;51.978;5.330;2023-04-01T15:48:13;61.43;;;56.53;;
14187;SDS011;7175;51.978;5.330;2023-04-01T15:51:03;63.17;;;58.17;;
14187;SDS011;7175;51.978;5.330;2023-04-01T15:53:45;65.30;;;60.20;;
14187;SDS011;7175;51.978;5.330;2023-04-01T15:56:25;66.13;;;60.93;;
14187;SDS011;7175;51.978;5.330;2023-04-01T15:59:09;66.73;;;61.53;;
14187;SDS011;7175;51.978;5.330;2023-04-01T16:01:50;66.57;;;61.47;;
14187;SDS011;7175;51.978;5.330;2023-04-01T16:04:29;66.17;;;61.00;;
14187;SDS011;7175;51.978;5.330;2023-04-01T16:07:16;65.90;;;60.70;;
14187;SDS011;7175;51.978;5.330;2023-04-01T16:10:04;63.67;;;58.70;;
14187;SDS011;7175;51.978;5.330;2023-04-01T16:12:49;62.87;;;57.97;;
14187;SDS011;7175;51.978;5.330;2023-04-01T16:15:26;62.17;;;57.37;;
14187;SDS011;7175;51.978;5.330;2023-04-01T16:18:09;61.10;;;56.30;;
14187;SDS011;7175;51.978;5.330;2023-04-01T16:20:54;59.73;;;55.03;;
14187;SDS011;7175;51.978;5.330;2023-04-01T16:23:29;58.40;;;53.90;;
14187;SDS011;7175;51.978;5.330;2023-04-01T16:26:05;61.80;;;57.00;;
14187;SDS011;7175;51.978;5.330;2023-04-01T16:28:39;62.93;;;58.03;;
14187;SDS011;7175;51.978;5.330;2023-04-01T16:31:23;65.43;;;60.40;;
14187;SDS011;7175;51.978;5.330;2023-04-01T16:33:58;63.93;;;58.97;;
14187;SDS011;7175;51.978;5.330;2023-04-01T16:36:34;55.97;;;51.47;;
14187;SDS011;7175;51.978;5.330;2023-04-01T16:39:22;60.97;;;56.17;;
14187;SDS011;7175;51.978;5.330;2023-04-01T16:42:06;60.20;;;55.50;;
14187;SDS011;7175;51.978;5.330;2023-04-01T16:44:46;61.87;;;57.00;;
14187;SDS011;7175;51.978;5.330;2023-04-01T16:47:19;59.83;;;55.03;;
14187;SDS011;7175;51.978;5.330;2023-04-01T16:49:51;57.97;;;53.30;;
14187;SDS011;7175;51.978;5.330;2023-04-01T16:52:36;58.27;;;53.57;;
14187;SDS011;7175;51.978;5.330;2023-04-01T16:55:18;52.87;;;48.57;;
14187;SDS011;7175;51.978;5.330;2023-04-01T16:57:50;50.70;;;46.60;;
14187;SDS011;7175;51.978;5.330;2023-04-01T17:00:23;51.00;;;46.80;;
14187;SDS011;7175;51.978;5.330;2023-04-01T17:02:57;54.60;;;50.20;;
14187;SDS011;7175;51.978;5.330;2023-04-01T17:05:39;48.10;;;44.10;;
14187;SDS011;7175;51.978;5.330;2023-04-01T17:08:26;49.13;;;45.03;;
14187;SDS011;7175;51.978;5.330;2023-04-01T17:11:08;50.70;;;46.50;;
14187;SDS011;7175;51.978;5.330;2023-04-01T17:13:44;51.80;;;47.50;;
14187;SDS011;7175;51.978;5.330;2023-04-01T17:16:23;53.07;;;48.67;;
14187;SDS011;7175;51.978;5.330;2023-04-01T17:19:09;57.73;;;53.03;;
14187;SDS011;7175;51.978;5.330;2023-04-01T17:21:46;56.83;;;52.13;;
14187;SDS011;7175;51.978;5.330;2023-04-01T17:24:31;54.13;;;49.63;;
14187;SDS011;7175;51.978;5.330;2023-04-01T17:27:15;56.40;;;51.70;;